createdAt,value
2023-04-21T00:00:55.864Z,99337.63
2023-04-21T00:03:24.435Z,99351.91
2023-04-21T00:05:51.648Z,99351.44
2023-04-21T00:08:18.965Z,99336.22
2023-04-21T00:10:46.677Z,99335.66
2023-04-21T00:13:13.687Z,99340.16
2023-04-21T00:15:40.245Z,99338.03
2023-04-21T00:18:07.037Z,99343.28
2023-04-21T00:20:33.534Z,99334.16
2023-04-21T00:23:00.050Z,99330.56
2023-04-21T00:25:26.587Z,99335.81
2023-04-21T00:27:53.010Z,99326.56
2023-04-21T00:30:19.452Z,99336.88
2023-04-21T00:32:46.345Z,99323.72
2023-04-21T00:35:13.353Z,99325.59
2023-04-21T00:37:41.449Z,99319.44
2023-04-21T00:40:08.639Z,99333.56
2023-04-21T00:42:35.053Z,99322.81
2023-04-21T00:45:01.430Z,99316.81
2023-04-21T00:47:27.841Z,99319.28
2023-04-21T00:49:54.803Z,99324.38
2023-04-21T00:52:21.426Z,99324.97
2023-04-21T00:54:47.975Z,99314.56
2023-04-21T00:57:15.112Z,99312.19
2023-04-21T00:59:41.853Z,99312.19
2023-04-21T01:02:08.290Z,99315.88
2023-04-21T01:04:39.525Z,99324.19
2023-04-21T01:07:07.504Z,99312.44
2023-04-21T01:09:34.458Z,99318.69
2023-04-21T01:12:05.895Z,99320.69
2023-04-21T01:14:34.664Z,99316.78
2023-04-21T01:17:01.136Z,99324.19
2023-04-21T01:19:31.452Z,99325.88
2023-04-21T01:22:00.499Z,99328.16
2023-04-21T01:24:40.906Z,99335.50
2023-04-21T01:27:14.855Z,99331.44
2023-04-21T01:29:42.811Z,99326.97
2023-04-21T01:32:18.330Z,99339.59
2023-04-21T01:34:46.155Z,99333.03
2023-04-21T01:37:16.359Z,99332.81
2023-04-21T01:39:45.371Z,99325.03
2023-04-21T01:42:12.529Z,99316.34
2023-04-21T01:44:39.198Z,99324.81
2023-04-21T01:47:06.260Z,99327.78
2023-04-21T01:49:32.563Z,99327.56
2023-04-21T01:51:58.876Z,99324.13
2023-04-21T01:54:25.229Z,99322.63
2023-04-21T01:56:52.244Z,99325.66
2023-04-21T01:59:18.876Z,99326.34
2023-04-21T02:01:45.609Z,99320.00
2023-04-21T02:04:12.014Z,99318.47
2023-04-21T02:06:38.545Z,99328.97
2023-04-21T02:09:06.698Z,99323.56
2023-04-21T02:11:33.541Z,99329.25
2023-04-21T02:13:59.844Z,99329.28
2023-04-21T02:16:26.362Z,99329.91
2023-04-21T02:18:53.963Z,99332.97
2023-04-21T02:21:24.267Z,99324.34
2023-04-21T02:23:51.310Z,99327.81
2023-04-21T02:26:18.889Z,99325.53
2023-04-21T02:28:45.694Z,99328.16
2023-04-21T02:31:15.335Z,99320.88
2023-04-21T02:33:41.755Z,99326.69
2023-04-21T02:36:08.342Z,99330.47
2023-04-21T02:38:34.788Z,99329.09
2023-04-21T02:41:01.208Z,99324.41
2023-04-21T02:43:27.614Z,99328.16
2023-04-21T02:45:55.313Z,99320.09
2023-04-21T02:48:23.069Z,99324.94
2023-04-21T02:50:52.877Z,99324.50
2023-04-21T02:53:20.278Z,99324.06
2023-04-21T02:55:46.619Z,99329.31
2023-04-21T02:58:13.337Z,99337.84
2023-04-21T03:00:41.383Z,99338.22
2023-04-21T03:03:08.183Z,99343.47
2023-04-21T03:05:34.908Z,99345.09
2023-04-21T03:08:01.234Z,99321.84
2023-04-21T03:10:27.671Z,99346.06
2023-04-21T03:12:56.161Z,99331.22
2023-04-21T03:15:23.778Z,99337.56
2023-04-21T03:17:50.250Z,99339.44
2023-04-21T03:20:16.966Z,99332.38
2023-04-21T03:22:43.397Z,99325.75
2023-04-21T03:25:10.151Z,99331.88
2023-04-21T03:27:36.459Z,99333.06
2023-04-21T03:30:03.842Z,99339.69
2023-04-21T03:32:30.532Z,99333.97
2023-04-21T03:34:56.975Z,99341.78
2023-04-21T03:37:24.340Z,99334.63
2023-04-21T03:39:50.719Z,99334.63
2023-04-21T03:42:18.664Z,99342.53
2023-04-21T03:44:45.019Z,99340.44
2023-04-21T03:47:11.363Z,99344.94
2023-04-21T03:49:37.677Z,99350.41
2023-04-21T03:52:04.272Z,99342.53
2023-04-21T03:54:30.732Z,99337.16
2023-04-21T03:56:57.088Z,99345.59
2023-04-21T03:59:23.370Z,99331.59
2023-04-21T04:01:49.702Z,99337.88
2023-04-21T04:04:16.440Z,99337.63
2023-04-21T04:06:42.939Z,99336.69
2023-04-21T04:09:09.322Z,99338.09
2023-04-21T04:11:35.952Z,99340.59
2023-04-21T04:14:02.297Z,99341.88
2023-04-21T04:16:28.983Z,99334.50
2023-04-21T04:18:55.693Z,99330.94
2023-04-21T04:21:21.986Z,99326.56
2023-04-21T04:23:51.578Z,99330.78
2023-04-21T04:26:18.589Z,99338.66
2023-04-21T04:28:45.071Z,99332.88
2023-04-21T04:31:13.276Z,99326.78
2023-04-21T04:33:43.358Z,99324.28
2023-04-21T04:36:11.782Z,99338.56
2023-04-21T04:38:38.070Z,99343.06
2023-04-21T04:41:04.960Z,99332.78
2023-04-21T04:43:36.729Z,99326.34
2023-04-21T04:46:03.447Z,99329.31
2023-04-21T04:48:29.793Z,99332.47
2023-04-21T04:50:56.098Z,99321.94
2023-04-21T04:53:22.519Z,99330.97
2023-04-21T04:55:48.799Z,99331.53
2023-04-21T04:58:15.423Z,99323.84
2023-04-21T05:00:41.715Z,99327.09
2023-04-21T05:03:08.150Z,99334.22
2023-04-21T05:05:34.462Z,99343.06
2023-04-21T05:08:00.840Z,99348.13
2023-04-21T05:10:27.107Z,99349.28
2023-04-21T05:12:54.236Z,99345.91
2023-04-21T05:15:22.384Z,99349.38
2023-04-21T05:17:49.010Z,99346.13
2023-04-21T05:20:15.366Z,99340.34
2023-04-21T05:22:41.726Z,99342.22
2023-04-21T05:25:11.787Z,99342.00
2023-04-21T05:27:38.191Z,99337.19
2023-04-21T05:30:04.816Z,99345.59
2023-04-21T05:32:31.225Z,99354.66
2023-04-21T05:34:57.647Z,99344.56
2023-04-21T05:37:23.945Z,99338.88
2023-04-21T05:39:51.208Z,99347.47
2023-04-21T05:42:18.221Z,99347.66
2023-04-21T05:44:44.552Z,99346.31
2023-04-21T05:47:10.916Z,99341.06
2023-04-21T05:49:37.218Z,99337.94
2023-04-21T05:52:03.691Z,99340.97
2023-04-21T05:54:30.063Z,99331.66
2023-04-21T05:56:56.843Z,99334.13
2023-04-21T05:59:23.112Z,99337.78
2023-04-21T06:01:49.860Z,99338.13
2023-04-21T06:04:16.494Z,99339.47
2023-04-21T06:06:44.188Z,99346.09
2023-04-21T06:09:10.738Z,99335.03
2023-04-21T06:11:37.112Z,99342.59
2023-04-21T06:14:03.405Z,99349.34
2023-04-21T06:16:32.354Z,99345.34
2023-04-21T06:18:58.954Z,99336.53
2023-04-21T06:21:25.415Z,99337.66
2023-04-21T06:23:51.776Z,99339.47
2023-04-21T06:26:18.156Z,99338.97
2023-04-21T06:28:44.457Z,99337.47
2023-04-21T06:31:15.105Z,99343.81
2023-04-21T06:33:41.478Z,99343.53
2023-04-21T06:36:08.074Z,99344.13
2023-04-21T06:38:34.386Z,99338.22
2023-04-21T06:41:00.972Z,99339.03
2023-04-21T06:43:27.314Z,99341.34
2023-04-21T06:45:53.648Z,99347.91
2023-04-21T06:48:19.938Z,99345.38
2023-04-21T06:50:46.432Z,99348.53
2023-04-21T06:53:12.855Z,99341.28
2023-04-21T06:55:39.248Z,99341.16
2023-04-21T06:58:05.691Z,99336.66
2023-04-21T07:00:32.055Z,99336.25
2023-04-21T07:02:58.443Z,99347.69
2023-04-21T07:05:25.165Z,99346.00
2023-04-21T07:07:51.560Z,99345.19
2023-04-21T07:10:19.724Z,99354.53
2023-04-21T07:12:46.184Z,99339.28
2023-04-21T07:15:12.641Z,99348.31
2023-04-21T07:17:39.027Z,99349.16
2023-04-21T07:20:06.011Z,99346.97
2023-04-21T07:22:32.318Z,99330.91
2023-04-21T07:24:58.752Z,99343.25
2023-04-21T07:27:25.232Z,99334.22
2023-04-21T07:29:51.541Z,99335.81
2023-04-21T07:32:17.830Z,99328.88
2023-04-21T07:34:46.798Z,99332.53
2023-04-21T07:37:13.100Z,99338.88
2023-04-21T07:39:39.397Z,99348.41
2023-04-21T07:42:08.061Z,99337.56
2023-04-21T07:44:34.782Z,99341.78
2023-04-21T07:47:01.210Z,99356.09
2023-04-21T07:49:27.767Z,99356.91
2023-04-21T07:51:54.107Z,99345.69
2023-04-21T07:54:20.511Z,99345.47
2023-04-21T07:56:46.816Z,99344.59
2023-04-21T07:59:13.137Z,99344.81
2023-04-21T08:01:39.477Z,99357.94
2023-04-21T08:04:06.557Z,99346.78
2023-04-21T08:06:33.483Z,99348.69
2023-04-21T08:08:59.998Z,99348.03
2023-04-21T08:11:27.929Z,99351.38
2023-04-21T08:13:54.362Z,99345.97
2023-04-21T08:16:20.807Z,99340.94
2023-04-21T08:18:47.203Z,99349.47
2023-04-21T08:21:14.758Z,99349.13
2023-04-21T08:23:41.079Z,99356.47
2023-04-21T08:26:09.278Z,99346.78
2023-04-21T08:28:35.642Z,99352.00
2023-04-21T08:31:02.279Z,99349.56
2023-04-21T08:33:28.743Z,99339.91
2023-04-21T08:36:05.477Z,99325.09
2023-04-21T08:38:32.143Z,99320.09
2023-04-21T08:40:59.868Z,99320.31
2023-04-21T08:43:26.678Z,99319.31
2023-04-21T08:45:54.315Z,99325.22
2023-04-21T08:48:23.633Z,99330.50
2023-04-21T08:50:51.106Z,99334.56
2023-04-21T08:53:17.997Z,99337.69
2023-04-21T08:55:47.815Z,99337.56
2023-04-21T08:58:15.750Z,99338.88
2023-04-21T09:00:42.109Z,99332.16
2023-04-21T09:03:19.246Z,99333.75
2023-04-21T09:06:03.242Z,99337.19
2023-04-21T09:08:30.345Z,99338.06
2023-04-21T09:10:57.863Z,99317.03
2023-04-21T09:13:32.535Z,99316.91
2023-04-21T09:15:59.514Z,99322.00
2023-04-21T09:18:28.238Z,99322.53
2023-04-21T09:21:06.807Z,99322.25
2023-04-21T09:23:40.787Z,99316.72
2023-04-21T09:26:07.492Z,99312.44
2023-04-21T09:28:33.886Z,99315.66
2023-04-21T09:31:00.255Z,99319.84
2023-04-21T09:33:32.297Z,99312.66
2023-04-21T09:36:02.145Z,99304.16
2023-04-21T09:38:28.471Z,99303.31
2023-04-21T09:40:58.901Z,99300.50
2023-04-21T09:43:25.924Z,99303.19
2023-04-21T09:45:54.282Z,99310.59
2023-04-21T09:48:24.302Z,99310.31
2023-04-21T09:51:24.250Z,99304.09
2023-04-21T09:53:40.336Z,99300.09
2023-04-21T09:56:12.156Z,99280.94
2023-04-21T09:58:52.333Z,99292.75
2023-04-21T10:01:19.532Z,99281.38
2023-04-21T10:03:48.553Z,99283.47
2023-04-21T10:06:15.555Z,99290.31
2023-04-21T10:08:43.420Z,99285.16
2023-04-21T10:11:10.556Z,99281.09
2023-04-21T10:13:38.388Z,99273.69
2023-04-21T10:16:11.490Z,99271.91
2023-04-21T10:18:42.492Z,99266.00
2023-04-21T10:21:10.660Z,99269.69
2023-04-21T10:23:45.332Z,99266.28
2023-04-21T10:26:24.039Z,99265.44
2023-04-21T10:28:56.301Z,99269.91
2023-04-21T10:31:23.933Z,99263.59
2023-04-21T10:34:08.653Z,99266.28
2023-04-21T10:36:42.852Z,99256.66
2023-04-21T10:39:12.848Z,99254.81
2023-04-21T10:41:39.253Z,99248.78
2023-04-21T10:44:13.403Z,99249.69
2023-04-21T10:46:50.634Z,99237.34
2023-04-21T10:49:40.586Z,99242.44
2023-04-21T10:52:09.134Z,99236.28
2023-04-21T10:55:06.556Z,99231.44
2023-04-21T10:57:34.358Z,99233.09
2023-04-21T11:00:00.981Z,99227.13
2023-04-21T11:02:27.522Z,99230.41
2023-04-21T11:04:54.432Z,99231.44
2023-04-21T11:07:25.220Z,99226.34
2023-04-21T11:10:07.954Z,99215.91
2023-04-21T11:12:38.192Z,99223.13
2023-04-21T11:15:07.553Z,99215.13
2023-04-21T11:17:34.806Z,99217.94
2023-04-21T11:20:02.090Z,99206.78
2023-04-21T11:22:28.401Z,99198.63
2023-04-21T11:24:56.603Z,99188.16
2023-04-21T11:27:23.574Z,99187.63
2023-04-21T11:29:50.804Z,99187.13
2023-04-21T11:32:18.017Z,99189.63
2023-04-21T11:34:45.066Z,99187.78
2023-04-21T11:37:23.902Z,99179.81
2023-04-21T11:39:50.324Z,99185.41
2023-04-21T11:42:22.686Z,99186.53
2023-04-21T11:44:49.099Z,99183.34
2023-04-21T11:47:26.680Z,99171.19
2023-04-21T11:49:55.206Z,99170.44
2023-04-21T11:52:33.113Z,99180.31
2023-04-21T11:55:05.752Z,99176.06
2023-04-21T11:57:33.650Z,99170.47
2023-04-21T12:00:02.040Z,99180.25
2023-04-21T12:02:32.412Z,99166.28
2023-04-21T12:05:01.214Z,99172.31
2023-04-21T12:07:29.768Z,99172.97
2023-04-21T12:09:56.140Z,99184.38
2023-04-21T12:12:24.349Z,99180.06
2023-04-21T12:14:51.655Z,99168.13
2023-04-21T12:17:18.095Z,99179.09
2023-04-21T12:19:44.607Z,99170.16
2023-04-21T12:22:13.229Z,99174.47
2023-04-21T12:24:42.762Z,99165.28
2023-04-21T12:27:09.115Z,99164.81
2023-04-21T12:29:37.338Z,99156.66
2023-04-21T12:32:09.953Z,99159.50
2023-04-21T12:34:36.535Z,99156.31
2023-04-21T12:37:03.497Z,99149.19
2023-04-21T12:39:30.373Z,99147.09
2023-04-21T12:41:57.601Z,99146.84
2023-04-21T12:44:23.980Z,99149.38
2023-04-21T12:46:50.565Z,99145.31
2023-04-21T12:49:17.522Z,99147.50
2023-04-21T12:51:44.497Z,99147.44
2023-04-21T12:54:12.326Z,99136.53
2023-04-21T12:56:42.245Z,99134.75
2023-04-21T12:59:10.356Z,99129.84
2023-04-21T13:01:38.183Z,99132.84
2023-04-21T13:04:05.736Z,99131.09
2023-04-21T13:06:33.079Z,99136.88
2023-04-21T13:08:59.811Z,99122.75
2023-04-21T13:11:26.147Z,99120.78
2023-04-21T13:13:52.417Z,99110.75
2023-04-21T13:16:18.769Z,99111.91
2023-04-21T13:18:46.325Z,99109.50
2023-04-21T13:21:13.179Z,99109.34
2023-04-21T13:23:39.862Z,99116.34
2023-04-21T13:26:07.319Z,99114.66
2023-04-21T13:28:33.741Z,99115.03
2023-04-21T13:31:00.221Z,99102.06
2023-04-21T13:33:26.752Z,99098.38
2023-04-21T13:35:53.310Z,99096.09
2023-04-21T13:38:20.686Z,99072.34
2023-04-21T13:40:48.816Z,99084.44
2023-04-21T13:43:15.380Z,99092.16
2023-04-21T13:45:41.815Z,99080.41
2023-04-21T13:48:08.175Z,99097.91
2023-04-21T13:50:34.563Z,99085.38
2023-04-21T13:53:00.973Z,99077.41
2023-04-21T13:55:27.312Z,99068.94
2023-04-21T13:57:53.717Z,99056.31
2023-04-21T14:00:20.229Z,99060.88
2023-04-21T14:02:47.251Z,99059.47
2023-04-21T14:05:13.895Z,99049.50
2023-04-21T14:07:40.320Z,99051.50
2023-04-21T14:10:07.310Z,99043.22
2023-04-21T14:12:33.625Z,99035.09
2023-04-21T14:15:00.054Z,99030.56
2023-04-21T14:17:26.889Z,99029.66
2023-04-21T14:19:55.251Z,99016.47
2023-04-21T14:22:21.973Z,99024.56
2023-04-21T14:24:48.391Z,99016.84
2023-04-21T14:27:14.777Z,99017.94
2023-04-21T14:29:41.160Z,99016.09
2023-04-21T14:32:07.609Z,99013.44
2023-04-21T14:34:34.199Z,99019.53
2023-04-21T14:37:00.890Z,99001.53
2023-04-21T14:39:27.416Z,99006.13
2023-04-21T14:41:54.276Z,98998.66
2023-04-21T14:44:20.673Z,99003.16
2023-04-21T14:46:57.053Z,99000.56
2023-04-21T14:49:27.954Z,98999.75
2023-04-21T14:51:54.513Z,98994.63
2023-04-21T14:54:21.914Z,99005.66
2023-04-21T14:56:48.259Z,98989.78
2023-04-21T14:59:14.584Z,98983.84
2023-04-21T15:01:41.331Z,98989.50
2023-04-21T15:04:08.146Z,98976.38
2023-04-21T15:06:34.541Z,98968.78
2023-04-21T15:09:00.861Z,98970.63
2023-04-21T15:11:27.245Z,98969.16
2023-04-21T15:13:53.673Z,98970.03
2023-04-21T15:16:20.098Z,98956.03
2023-04-21T15:18:46.536Z,98959.47
2023-04-21T15:21:13.168Z,98964.34
2023-04-21T15:23:39.424Z,98956.03
2023-04-21T15:26:05.813Z,98959.72
2023-04-21T15:28:32.676Z,98953.38
2023-04-21T15:30:59.043Z,98949.88
2023-04-21T15:33:25.594Z,98942.56
2023-04-21T15:35:52.167Z,98929.41
2023-04-21T15:38:18.448Z,98934.63
2023-04-21T15:40:59.789Z,98933.31
2023-04-21T15:43:27.301Z,98926.03
2023-04-21T15:45:53.695Z,98930.72
2023-04-21T15:48:21.964Z,98931.19
2023-04-21T15:50:50.830Z,98925.53
2023-04-21T15:53:19.814Z,98926.38
2023-04-21T15:55:46.528Z,98923.06
2023-04-21T15:58:13.512Z,98914.75
2023-04-21T16:00:41.797Z,98913.09
2023-04-21T16:03:09.154Z,98903.25
2023-04-21T16:05:36.181Z,98897.16
2023-04-21T16:08:02.626Z,98904.25
2023-04-21T16:10:28.995Z,98901.94
2023-04-21T16:12:55.688Z,98896.81
2023-04-21T16:15:24.674Z,98877.78
2023-04-21T16:17:51.912Z,98871.31
2023-04-21T16:20:18.476Z,98867.19
2023-04-21T16:22:45.092Z,98883.31
2023-04-21T16:25:16.107Z,98879.78
2023-04-21T16:27:42.574Z,98883.50
2023-04-21T16:30:09.278Z,98885.84
2023-04-21T16:32:36.024Z,98875.66
2023-04-21T16:35:07.623Z,98874.19
2023-04-21T16:37:35.800Z,98870.50
2023-04-21T16:40:02.442Z,98871.66
2023-04-21T16:42:28.751Z,98864.88
2023-04-21T16:44:58.882Z,98864.06
2023-04-21T16:47:25.611Z,98857.72
2023-04-21T16:49:52.015Z,98853.53
2023-04-21T16:52:18.378Z,98858.88
2023-04-21T16:54:44.652Z,98854.94
2023-04-21T16:57:10.980Z,98858.22
2023-04-21T16:59:37.334Z,98858.75
2023-04-21T17:02:03.742Z,98858.94
2023-04-21T17:04:30.185Z,98859.94
2023-04-21T17:06:56.592Z,98872.94
2023-04-21T17:09:22.927Z,98876.28
2023-04-21T17:11:49.248Z,98874.66
2023-04-21T17:14:15.793Z,98875.00
2023-04-21T17:16:42.345Z,98867.66
2023-04-21T17:19:08.720Z,98878.00
2023-04-21T17:21:35.761Z,98866.19
2023-04-21T17:24:02.069Z,98863.41
2023-04-21T17:26:28.421Z,98871.03
2023-04-21T17:28:55.301Z,98867.06
2023-04-21T17:31:21.677Z,98884.56
2023-04-21T17:33:48.068Z,98894.88
2023-04-21T17:36:16.635Z,98884.91
2023-04-21T17:38:43.181Z,98887.25
2023-04-21T17:41:09.737Z,98887.56
2023-04-21T17:43:36.050Z,98885.25
2023-04-21T17:46:02.472Z,98888.75
2023-04-21T17:48:28.858Z,98890.28
2023-04-21T17:50:55.205Z,98894.94
2023-04-21T17:53:21.552Z,98895.81
2023-04-21T17:55:47.895Z,98889.63
2023-04-21T17:58:14.293Z,98889.00
2023-04-21T18:00:40.718Z,98878.88
2023-04-21T18:03:07.455Z,98881.34
2023-04-21T18:05:33.952Z,98878.69
2023-04-21T18:08:00.703Z,98876.53
2023-04-21T18:10:29.490Z,98892.84
2023-04-21T18:12:56.308Z,98924.81
2023-04-21T18:15:22.758Z,98987.03
2023-04-21T18:17:49.209Z,98977.50
2023-04-21T18:20:15.674Z,98972.84
2023-04-21T18:22:43.572Z,98965.50
2023-04-21T18:25:11.642Z,98965.06
2023-04-21T18:27:39.250Z,98969.81
2023-04-21T18:30:07.354Z,98971.44
2023-04-21T18:32:34.655Z,98948.50
2023-04-21T18:35:01.256Z,98924.94
2023-04-21T18:37:27.560Z,98907.06
2023-04-21T18:39:54.028Z,98909.44
2023-04-21T18:42:20.486Z,98889.47
2023-04-21T18:44:47.254Z,98882.19
2023-04-21T18:47:15.228Z,98910.19
2023-04-21T18:49:42.103Z,98923.81
2023-04-21T18:52:09.248Z,98927.63
2023-04-21T18:54:35.822Z,98947.41
2023-04-21T18:57:03.733Z,98936.75
2023-04-21T18:59:30.258Z,98934.59
2023-04-21T19:01:56.666Z,98947.56
2023-04-21T19:04:23.219Z,98949.38
2023-04-21T19:06:50.208Z,98935.59
2023-04-21T19:09:17.031Z,98945.94
2023-04-21T19:11:43.393Z,98972.47
2023-04-21T19:14:09.833Z,98962.09
2023-04-21T19:16:36.355Z,98954.81
2023-04-21T19:19:03.887Z,98955.41
2023-04-21T19:21:30.362Z,98963.66
2023-04-21T19:23:57.907Z,98958.50
2023-04-21T19:26:24.737Z,98947.25
2023-04-21T19:28:51.118Z,98953.19
2023-04-21T19:31:21.566Z,98957.94
2023-04-21T19:33:49.356Z,98958.25
2023-04-21T19:36:15.813Z,98957.28
2023-04-21T19:38:42.113Z,98955.00
2023-04-21T19:41:08.582Z,98951.31
2023-04-21T19:43:34.866Z,98966.38
2023-04-21T19:46:01.339Z,98967.59
2023-04-21T19:48:27.999Z,98960.38
2023-04-21T19:50:54.358Z,98963.31
2023-04-21T19:53:20.772Z,98965.16
2023-04-21T19:55:48.682Z,98956.75
2023-04-21T19:58:28.140Z,98946.84
2023-04-21T20:01:03.593Z,98953.75
2023-04-21T20:03:31.271Z,98962.75
2023-04-21T20:05:57.732Z,98964.47
2023-04-21T20:08:24.101Z,98955.84
2023-04-21T20:10:50.506Z,98958.50
2023-04-21T20:13:16.868Z,98952.13
2023-04-21T20:15:43.289Z,98952.34
2023-04-21T20:18:09.794Z,98955.75
2023-04-21T20:20:36.715Z,98951.34
2023-04-21T20:23:03.232Z,98936.34
2023-04-21T20:25:29.784Z,98950.19
2023-04-21T20:27:56.947Z,98950.50
2023-04-21T20:30:24.368Z,98942.81
2023-04-21T20:32:50.864Z,98948.47
2023-04-21T20:35:17.320Z,98954.88
2023-04-21T20:37:44.330Z,98943.59
2023-04-21T20:40:11.723Z,98945.78
2023-04-21T20:42:38.820Z,98940.06
2023-04-21T20:45:06.420Z,98933.69
2023-04-21T20:47:33.811Z,98933.00
2023-04-21T20:50:00.484Z,98936.75
2023-04-21T20:52:26.929Z,98928.88
2023-04-21T20:54:53.256Z,98930.22
2023-04-21T20:57:19.638Z,98926.41
2023-04-21T20:59:46.002Z,98923.06
2023-04-21T21:02:12.450Z,98924.78
2023-04-21T21:04:39.556Z,98926.63
2023-04-21T21:07:06.316Z,98929.81
2023-04-21T21:09:32.718Z,98934.88
2023-04-21T21:11:59.173Z,98930.66
2023-04-21T21:14:25.564Z,98933.59
2023-04-21T21:16:54.445Z,98934.56
2023-04-21T21:19:21.849Z,98942.34
2023-04-21T21:21:48.192Z,98949.19
2023-04-21T21:24:14.498Z,98946.97
2023-04-21T21:26:42.691Z,98955.16
2023-04-21T21:29:09.308Z,98954.16
2023-04-21T21:31:35.685Z,98958.06
2023-04-21T21:34:03.799Z,98945.69
2023-04-21T21:36:31.650Z,98952.88
2023-04-21T21:38:58.060Z,98953.44
2023-04-21T21:41:24.390Z,98957.63
2023-04-21T21:43:50.725Z,98953.31
2023-04-21T21:46:18.427Z,98947.63
2023-04-21T21:48:44.759Z,98941.66
2023-04-21T21:51:11.189Z,98948.63
2023-04-21T21:53:37.498Z,98947.63
2023-04-21T21:56:03.981Z,98940.81
2023-04-21T21:58:30.730Z,98940.81
2023-04-21T22:00:57.004Z,98937.59
2023-04-21T22:03:23.504Z,98936.50
2023-04-21T22:05:49.892Z,98927.06
2023-04-21T22:08:16.317Z,98935.69
2023-04-21T22:10:43.371Z,98926.63
2023-04-21T22:13:10.536Z,98922.03
2023-04-21T22:15:37.320Z,98933.03
2023-04-21T22:18:03.952Z,98920.63
2023-04-21T22:20:30.751Z,98933.00
2023-04-21T22:22:57.072Z,98936.66
2023-04-21T22:25:26.816Z,98933.16
2023-04-21T22:27:56.875Z,98934.81
2023-04-21T22:30:23.528Z,98930.41
2023-04-21T22:32:50.058Z,98931.19
2023-04-21T22:35:16.730Z,98928.41
2023-04-21T22:37:43.014Z,98935.50
2023-04-21T22:40:09.898Z,98940.13
2023-04-21T22:42:36.735Z,98947.34
2023-04-21T22:45:05.112Z,98945.50
2023-04-21T22:47:33.308Z,98945.50
2023-04-21T22:49:59.969Z,98949.38
2023-04-21T22:52:26.834Z,98942.88
2023-04-21T22:54:53.590Z,98943.03
2023-04-21T22:57:20.873Z,98936.78
2023-04-21T22:59:47.376Z,98956.78
2023-04-21T23:02:13.909Z,98947.03
2023-04-21T23:04:40.312Z,98945.34
2023-04-21T23:07:06.624Z,98943.97
2023-04-21T23:09:32.965Z,98946.34
2023-04-21T23:11:59.520Z,98949.81
2023-04-21T23:14:26.053Z,98950.69
2023-04-21T23:16:52.460Z,98940.09
2023-04-21T23:19:18.789Z,98941.22
2023-04-21T23:21:46.318Z,98946.03
2023-04-21T23:24:12.778Z,98936.22
2023-04-21T23:26:39.122Z,98939.47
2023-04-21T23:29:05.850Z,98953.41
2023-04-21T23:31:32.289Z,98951.75
2023-04-21T23:33:59.966Z,98945.34
2023-04-21T23:36:27.041Z,98954.28
2023-04-21T23:38:53.744Z,98938.00
2023-04-21T23:41:20.659Z,98942.28
2023-04-21T23:43:46.953Z,98944.75
2023-04-21T23:46:13.294Z,98945.66
2023-04-21T23:48:39.656Z,98955.63
2023-04-21T23:51:06.355Z,98952.56
2023-04-21T23:53:33.045Z,98946.50
2023-04-21T23:55:59.425Z,98933.13
2023-04-21T23:58:25.809Z,98945.75
